Time;durP1;ratioP1;P1;durP2;ratioP2;P2;SDS_P1;SDS_P2;PMS_P1;PMS_P2;Temp;Humidity;BMP_temperature;BMP_pressure;BME280_temperature;BME280_humidity;BME280_pressure;Samples;Min_cycle;Max_cycle;Signal;HPM_P1;HPM_P2
2022/05/01 00:01:22;;;;;;;12.07;6.05;;;;;;;10.43;72.74;102382.06;5042773;28;20033;-51
2022/05/01 00:03:50;;;;;;;11.82;5.82;;;;;;;10.41;72.70;102381.47;5063196;28;20036;-55
2022/05/01 00:06:19;;;;;;;14.07;5.97;;;;;;;10.42;72.73;102385.88;5048601;28;20506;-53
2022/05/01 00:08:47;;;;;;;10.55;6.00;;;;;;;10.43;73.00;102382.06;5055414;28;20483;-51
2022/05/01 00:11:14;;;;;;;10.80;5.53;;;;;;;10.44;73.14;102378.31;5039491;28;20518;-50
2022/05/01 00:13:43;;;;;;;10.70;5.95;;;;;;;10.48;72.88;102381.38;5037854;28;20041;-51
2022/05/01 00:16:12;;;;;;;12.48;6.25;;;;;;;10.45;72.57;102379.97;5037601;28;20063;-50
2022/05/01 00:18:41;;;;;;;9.38;5.88;;;;;;;10.43;73.26;102380.19;5037004;28;20041;-51
2022/05/01 00:21:08;;;;;;;8.95;5.97;;;;;;;10.45;72.98;102385.41;5056021;28;20033;-50
2022/05/01 00:23:37;;;;;;;9.88;5.70;;;;;;;10.44;72.66;102378.31;5054719;28;20033;-49
2022/05/01 00:26:06;;;;;;;11.55;6.10;;;;;;;10.45;72.90;102379.97;5040035;28;20120;-49
2022/05/01 00:28:37;;;;;;;13.20;6.45;;;;;;;10.40;73.01;102374.38;5059447;28;20079;-49
2022/05/01 00:31:06;;;;;;;12.15;6.60;;;;;;;10.37;73.56;102377.56;5037754;28;20040;-49
2022/05/01 00:36:28;;;;;;;11.63;6.97;;;;;;;10.38;73.68;102380.03;5055079;28;20395;-50
2022/05/01 00:38:58;;;;;;;10.30;7.22;;;;;;;10.40;73.65;102372.47;5030701;28;20088;-51
2022/05/01 00:41:27;;;;;;;10.90;7.03;;;;;;;10.40;73.26;102374.38;5022201;28;20107;-56
2022/05/01 00:44:14;;;;;;;13.25;7.20;;;;;;;10.41;73.39;102374.16;5047868;28;20064;-50
2022/05/01 00:46:45;;;;;;;9.27;6.90;;;;;;;10.43;73.69;102365.72;5034173;28;20128;-51
2022/05/01 00:49:16;;;;;;;11.63;7.38;;;;;;;10.44;73.52;102364.69;5040278;28;20412;-51
2022/05/01 00:51:57;;;;;;;13.45;7.22;;;;;;;10.45;73.34;102371.78;5057657;28;20045;-53
2022/05/01 00:54:32;;;;;;;12.25;7.05;;;;;;;10.43;73.79;102369.28;5047659;28;20052;-48
2022/05/01 00:57:02;;;;;;;12.10;7.47;;;;;;;10.43;73.45;102366.56;5056904;28;20033;-50
2022/05/01 00:59:31;;;;;;;11.85;7.13;;;;;;;10.44;73.53;102359.22;5054974;28;20499;-50
2022/05/01 01:01:58;;;;;;;11.25;7.25;;;;;;;10.43;73.89;102358.38;5055319;28;20049;-50
2022/05/01 01:04:26;;;;;;;12.07;7.60;;;;;;;10.44;73.69;102353.78;5038253;28;20411;-51
2022/05/01 01:06:54;;;;;;;10.93;7.22;;;;;;;10.38;74.13;102363.69;5055136;28;20517;-50
2022/05/01 01:09:22;;;;;;;10.35;7.55;;;;;;;10.31;73.76;102352.03;5055378;28;20479;-49
2022/05/01 01:12:53;;;;;;;12.25;7.53;;;;;;;10.31;74.42;102356.66;5057062;28;20049;-51
2022/05/01 01:14:37;;;;;;;12.23;7.40;;;;;;;10.34;74.01;102362.50;5054210;28;20053;-51
2022/05/01 01:17:05;;;;;;;9.88;7.00;;;;;;;10.36;74.02;102354.91;5054746;28;20088;-52
2022/05/01 01:19:32;;;;;;;13.35;7.30;;;;;;;10.37;73.80;102359.31;5054906;28;20063;-51
2022/05/01 01:22:00;;;;;;;11.75;7.43;;;;;;;10.37;73.83;102355.75;5052501;28;20523;-53
2022/05/01 01:24:28;;;;;;;12.93;7.57;;;;;;;10.35;73.69;102364.16;5026248;28;20041;-52
2022/05/01 01:26:57;;;;;;;12.98;7.82;;;;;;;10.34;73.87;102358.91;5040355;28;20037;-51
2022/05/01 01:32:13;;;;;;;12.50;7.45;;;;;;;10.31;74.07;102351.22;5042425;28;20053;-52
2022/05/01 01:34:42;;;;;;;13.60;7.97;;;;;;;10.30;74.10;102349.56;5044388;28;20488;-49
2022/05/01 01:37:12;;;;;;;13.45;7.63;;;;;;;10.29;74.51;102347.88;5036431;28;20053;-51
2022/05/01 01:39:40;;;;;;;11.65;7.75;;;;;;;10.29;74.52;102356.88;5036769;28;20049;-51
2022/05/01 01:42:09;;;;;;;12.60;7.70;;;;;;;10.29;74.51;102350.59;5039984;28;20045;-51
2022/05/01 01:44:38;;;;;;;12.40;8.50;;;;;;;10.30;74.51;102342.22;5037849;28;20033;-48
2022/05/01 01:47:06;;;;;;;11.02;7.95;;;;;;;10.29;74.40;102347.88;5036277;28;20503;-51
2022/05/01 01:49:34;;;;;;;10.60;7.10;;;;;;;10.26;74.71;102345.59;5054701;28;20049;-49
2022/05/01 01:52:04;;;;;;;12.68;8.10;;;;;;;10.20;75.07;102340.00;5054982;28;20045;-51
2022/05/01 01:54:32;;;;;;;10.38;7.47;;;;;;;10.22;74.91;102343.31;5054801;28;20106;-52
2022/05/01 01:57:00;;;;;;;11.70;7.60;;;;;;;10.22;74.85;102342.47;5054449;28;20499;-51
2022/05/01 01:59:27;;;;;;;12.07;8.23;;;;;;;10.22;75.08;102342.47;5054647;28;20409;-53
2022/05/01 02:01:55;;;;;;;11.85;8.43;;;;;;;10.24;74.91;102340.34;5035717;28;20369;-51
2022/05/01 02:04:23;;;;;;;11.70;8.48;;;;;;;10.23;74.70;102339.53;5071042;28;20040;-50
2022/05/01 02:06:51;;;;;;;11.95;8.02;;;;;;;10.23;75.13;102338.72;5038869;28;20080;-51
2022/05/01 02:09:18;;;;;;;13.55;8.32;;;;;;;10.23;74.99;102344.97;5048537;28;20407;-51
2022/05/01 02:11:46;;;;;;;14.35;8.40;;;;;;;10.23;74.96;102344.97;5054173;28;20048;-53
2022/05/01 02:14:14;;;;;;;16.27;7.95;;;;;;;10.27;75.32;102341.78;5037300;28;20060;-49
2022/05/01 02:16:41;;;;;;;12.63;8.75;;;;;;;10.27;74.78;102339.91;5053059;28;20044;-49
2022/05/01 02:19:09;;;;;;;13.23;8.68;;;;;;;10.29;74.76;102337.81;5010689;28;20053;-49
2022/05/01 02:21:37;;;;;;;12.40;8.90;;;;;;;10.30;74.92;102339.50;5049467;28;20458;-50
2022/05/01 02:24:09;;;;;;;11.68;8.52;;;;;;;10.30;74.87;102333.22;5050478;28;20039;-50
2022/05/01 02:26:37;;;;;;;12.02;8.48;;;;;;;10.28;75.03;102335.31;5044670;28;20053;-50
2022/05/01 02:29:10;;;;;;;11.07;8.48;;;;;;;10.24;75.33;102333.00;5038148;28;20045;-50
2022/05/01 02:31:42;;;;;;;12.43;8.65;;;;;;;10.19;75.39;102335.59;5052815;28;20091;-53
2022/05/01 02:34:11;;;;;;;13.50;8.85;;;;;;;10.16;75.70;102333.34;5054674;28;20452;-51
2022/05/01 02:36:39;;;;;;;13.85;8.90;;;;;;;10.14;75.83;102330.00;5031427;28;20040;-47
2022/05/01 02:39:06;;;;;;;13.63;8.85;;;;;;;10.11;75.96;102333.19;5014878;28;20041;-51
2022/05/01 02:41:34;;;;;;;13.18;9.00;;;;;;;10.09;75.95;102329.84;5034482;28;20057;-52
2022/05/01 02:44:02;;;;;;;14.20;9.07;;;;;;;10.09;76.03;102324.41;5049412;28;20483;-55
2022/05/01 02:46:31;;;;;;;12.10;9.07;;;;;;;10.09;76.27;102321.69;5048174;28;20041;-52
2022/05/01 02:48:59;;;;;;;14.15;9.95;;;;;;;10.09;75.96;102324.41;5037724;28;20454;-52
2022/05/01 02:51:27;;;;;;;14.45;9.20;;;;;;;10.04;76.26;102321.53;5022551;28;20037;-52
2022/05/01 02:53:55;;;;;;;13.88;9.45;;;;;;;10.00;76.53;102323.03;5033318;28;20060;-50
2022/05/01 02:56:22;;;;;;;14.63;9.70;;;;;;;9.98;76.91;102319.72;5015688;28;20124;-52
2022/05/01 02:58:50;;;;;;;15.18;9.40;;;;;;;9.99;76.88;102324.13;5054737;28;20045;-51
2022/05/01 03:01:18;;;;;;;13.32;9.23;;;;;;;10.00;76.94;102323.03;5053299;28;20037;-54
2022/05/01 03:03:45;;;;;;;12.10;9.35;;;;;;;10.00;77.10;102318.41;5052726;28;20048;-52
2022/05/01 03:06:13;;;;;;;12.50;8.98;;;;;;;10.02;77.26;102318.22;5052240;28;20052;-50
2022/05/01 03:08:40;;;;;;;12.13;9.18;;;;;;;10.03;77.16;102318.00;5061777;28;20056;-50
2022/05/01 03:11:08;;;;;;;12.57;9.60;;;;;;;10.07;77.25;102312.09;5053020;28;20044;-53
2022/05/01 03:13:36;;;;;;;13.23;9.77;;;;;;;10.09;77.40;102313.50;5035071;28;20037;-53
2022/05/01 03:16:04;;;;;;;12.68;9.75;;;;;;;10.09;77.00;102310.78;5052944;28;20097;-52
2022/05/01 03:24:04;;;;;;;14.38;9.98;;;;;;;10.08;77.22;102308.28;5049957;28;19929;-50
2022/05/01 03:26:32;;;;;;;14.82;10.45;;;;;;;10.09;77.25;102309.97;5055389;28;20502;-52
2022/05/01 03:28:59;;;;;;;13.52;9.20;;;;;;;10.07;77.26;102310.19;5051449;28;20045;-52
2022/05/01 03:31:27;;;;;;;14.25;9.18;;;;;;;10.08;77.27;102302.84;5039970;28;20040;-54
2022/05/01 03:33:55;;;;;;;14.55;10.43;;;;;;;10.08;77.17;102298.25;5054368;28;20064;-52
2022/05/01 03:36:22;;;;;;;12.75;9.20;;;;;;;10.08;77.27;102302.84;5057282;28;20040;-51
2022/05/01 03:38:50;;;;;;;15.65;10.25;;;;;;;10.07;77.15;102301.19;5056876;28;20067;-52
2022/05/01 03:41:18;;;;;;;13.23;9.68;;;;;;;10.03;77.27;102296.22;5056591;28;20495;-51
2022/05/01 03:43:46;;;;;;;14.82;10.15;;;;;;;10.00;77.40;102299.38;5058233;28;20045;-52
2022/05/01 03:46:14;;;;;;;14.68;10.10;;;;;;;9.99;77.31;102296.88;5043493;28;20045;-52
2022/05/01 03:48:41;;;;;;;14.52;9.45;;;;;;;9.97;77.75;102294.38;5036655;28;20045;-52
2022/05/01 03:51:09;;;;;;;16.50;10.05;;;;;;;9.97;77.79;102293.56;5044692;28;20033;-52
2022/05/01 03:53:37;;;;;;;13.52;9.80;;;;;;;9.96;78.16;102294.63;5051963;28;20049;-51
2022/05/01 03:56:05;;;;;;;15.90;9.77;;;;;;;9.95;78.12;102295.66;5051287;28;20045;-50
2022/05/01 03:58:33;;;;;;;15.77;10.13;;;;;;;9.96;78.46;102300.06;5055231;28;20068;-51
2022/05/01 04:01:00;;;;;;;14.45;9.77;;;;;;;9.96;78.38;102300.06;5057717;28;20494;-55
2022/05/01 04:03:28;;;;;;;14.05;9.73;;;;;;;9.95;78.69;102298.41;5049985;28;20033;-51
2022/05/01 04:05:56;;;;;;;13.20;9.85;;;;;;;9.95;78.68;102293.78;5056112;28;20511;-51
2022/05/01 04:08:24;;;;;;;14.65;10.23;;;;;;;9.96;78.36;102295.47;5056765;28;20037;-52
2022/05/01 04:10:52;;;;;;;17.92;9.68;;;;;;;9.96;78.33;102294.63;5056551;28;20048;-51
2022/05/01 04:13:20;;;;;;;13.93;9.57;;;;;;;9.94;78.16;102303.00;5039027;28;20041;-53
2022/05/01 04:15:48;;;;;;;20.27;9.57;;;;;;;9.91;78.28;102294.44;5055629;28;20068;-50
2022/05/01 04:18:15;;;;;;;17.17;10.02;;;;;;;9.91;78.36;102299.91;5014718;28;20124;-48
2022/05/01 04:20:45;;;;;;;15.55;10.20;;;;;;;9.91;78.62;102299.91;5042604;28;20037;-50
2022/05/01 04:23:12;;;;;;;13.63;10.30;;;;;;;9.92;78.52;102305.13;5054364;28;20487;-52
2022/05/01 04:25:40;;;;;;;16.70;10.85;;;;;;;9.93;78.09;102290.47;5054489;28;20052;-51
2022/05/01 04:28:10;;;;;;;14.38;10.48;;;;;;;9.93;78.32;102300.50;5050050;28;20038;-52
2022/05/01 04:30:39;;;;;;;19.15;10.88;;;;;;;9.89;78.62;102293.88;5038690;28;20040;-54
2022/05/01 04:33:08;;;;;;;14.65;9.82;;;;;;;9.85;78.73;102309.00;5058781;28;20054;-52
2022/05/01 04:35:42;;;;;;;14.52;10.25;;;;;;;9.79;78.73;102297.94;5055462;28;20041;-53
2022/05/01 04:38:13;;;;;;;13.38;9.88;;;;;;;9.80;78.96;102291.44;5054456;28;20072;-54
2022/05/01 04:40:43;;;;;;;16.58;9.60;;;;;;;9.84;79.02;102296.41;5054897;28;20048;-50
2022/05/01 04:43:18;;;;;;;14.18;10.07;;;;;;;9.86;78.37;102299.75;5054937;28;20561;-54
2022/05/01 04:45:51;;;;;;;16.27;10.20;;;;;;;9.84;78.78;102300.00;5021585;28;20044;-53
2022/05/01 04:48:19;;;;;;;15.75;11.05;;;;;;;9.80;78.78;102302.31;5041676;28;20380;-52
2022/05/01 04:50:48;;;;;;;16.20;10.18;;;;;;;9.81;78.88;102304.00;5055755;28;20488;-50
2022/05/01 04:53:17;;;;;;;14.98;10.45;;;;;;;9.81;78.74;102306.72;5052794;28;20041;-52
2022/05/01 04:55:47;;;;;;;14.32;10.35;;;;;;;9.82;78.81;102302.94;5034582;28;20040;-50
2022/05/01 04:58:15;;;;;;;13.68;9.63;;;;;;;9.85;78.69;102309.00;5055761;28;20321;-54
2022/05/01 05:00:43;;;;;;;14.43;10.52;;;;;;;9.85;78.87;102300.81;5058942;28;20120;-53
2022/05/01 05:03:12;;;;;;;16.02;10.82;;;;;;;9.82;78.94;102305.66;5063957;28;20449;-50
2022/05/01 05:05:40;;;;;;;14.88;11.00;;;;;;;9.80;79.23;102313.22;5055184;28;20052;-54
2022/05/01 05:10:53;;;;;;;;;;;;;;;9.82;79.29;102319.28;5057789;28;20051;-55
2022/05/01 05:13:27;;;;;;;15.13;10.43;;;;;;;9.82;79.21;102313.81;5035332;28;19927;-50
2022/05/01 05:15:59;;;;;;;17.48;11.00;;;;;;;9.85;79.20;102320.72;5044808;28;20045;-49
2022/05/01 05:18:28;;;;;;;15.85;10.85;;;;;;;9.85;78.93;102309.00;5050684;28;20413;-50
2022/05/01 05:20:56;;;;;;;15.65;11.82;;;;;;;9.84;79.13;102319.06;5062707;28;20086;-52
2022/05/01 05:23:23;;;;;;;17.38;10.80;;;;;;;9.81;79.43;102323.06;5048226;28;20048;-50
2022/05/01 05:25:51;;;;;;;16.73;11.27;;;;;;;9.78;79.65;102320.78;5056150;28;20040;-48
2022/05/01 05:28:19;;;;;;;14.50;10.38;;;;;;;9.76;80.16;102322.06;5048075;28;20064;-49
2022/05/01 05:30:48;;;;;;;18.27;11.68;;;;;;;9.76;80.13;102331.03;5055770;28;20058;-49
2022/05/01 05:33:17;;;;;;;14.40;11.48;;;;;;;9.75;80.41;102332.13;5051417;28;20525;-49
2022/05/01 05:35:45;;;;;;;16.48;11.70;;;;;;;9.74;80.44;102330.47;5049631;28;20054;-51
2022/05/01 05:38:13;;;;;;;17.33;12.95;;;;;;;9.69;80.57;102327.59;5054073;28;20044;-51
2022/05/01 05:40:41;;;;;;;18.25;13.05;;;;;;;9.66;81.24;102338.91;5059623;28;20048;-53
2022/05/01 05:43:09;;;;;;;17.77;12.13;;;;;;;9.64;80.99;102343.72;5035318;28;20092;-51
2022/05/01 05:45:40;;;;;;;17.90;12.75;;;;;;;9.65;81.27;102337.25;5034610;28;20455;-51
2022/05/01 05:48:07;;;;;;;18.00;13.18;;;;;;;9.69;81.22;102338.47;5035182;28;20041;-49
2022/05/01 05:50:35;;;;;;;18.30;13.43;;;;;;;9.70;81.06;102334.69;5070865;28;20059;-49
2022/05/01 05:53:03;;;;;;;17.33;12.20;;;;;;;9.72;80.99;102338.03;5056211;28;20052;-49
2022/05/01 05:55:33;;;;;;;16.58;11.82;;;;;;;9.77;80.69;102343.63;5053482;28;20041;-50
2022/05/01 05:58:02;;;;;;;18.27;11.85;;;;;;;9.82;80.45;102343.78;5053748;28;20051;-48
2022/05/01 06:00:30;;;;;;;15.00;11.32;;;;;;;9.86;80.24;102343.31;5045712;28;20136;-55
2022/05/01 06:02:57;;;;;;;15.20;11.82;;;;;;;9.88;80.15;102343.91;5060168;28;20037;-49
2022/05/01 06:05:25;;;;;;;16.67;11.75;;;;;;;9.87;80.46;102334.94;5053617;28;20056;-49
2022/05/01 06:07:53;;;;;;;17.65;11.70;;;;;;;9.88;80.22;102341.19;5054167;28;20072;-49
2022/05/01 06:10:21;;;;;;;15.93;11.45;;;;;;;9.85;80.28;102342.47;5055136;28;20037;-48
2022/05/01 06:12:49;;;;;;;16.88;11.90;;;;;;;9.86;80.56;102346.88;5053056;28;20036;-48
2022/05/01 06:15:19;;;;;;;15.88;11.60;;;;;;;9.90;80.88;102337.19;5054938;28;20032;-49
2022/05/01 06:17:49;;;;;;;16.65;11.43;;;;;;;9.91;80.62;102341.59;5035313;28;20499;-47
2022/05/01 06:20:20;;;;;;;19.50;11.27;;;;;;;9.94;80.71;102345.75;5051336;28;20041;-49
2022/05/01 06:22:51;;;;;;;14.68;10.93;;;;;;;9.96;80.65;102349.09;5053208;28;20507;-51
2022/05/01 06:25:19;;;;;;;13.68;10.57;;;;;;;10.01;80.32;102357.41;5036446;28;20045;-51
2022/05/01 06:27:46;;;;;;;16.05;11.07;;;;;;;10.03;80.52;102355.28;5053689;28;20041;-51
2022/05/01 06:30:14;;;;;;;17.35;11.18;;;;;;;10.05;80.65;102344.97;5036756;28;20124;-51
2022/05/01 06:32:43;;;;;;;16.48;11.95;;;;;;;10.05;80.95;102344.16;5050488;28;20033;-48
2022/05/01 06:35:11;;;;;;;15.32;12.45;;;;;;;10.03;80.73;102349.84;5034625;28;20073;-49
2022/05/01 06:37:39;;;;;;;16.48;11.48;;;;;;;10.00;81.03;102350.28;5034493;28;20029;-53
2022/05/01 06:40:07;;;;;;;15.32;12.00;;;;;;;9.97;81.42;102350.72;5044840;28;20061;-50
2022/05/01 06:42:35;;;;;;;16.63;12.68;;;;;;;9.97;81.63;102350.72;5053929;28;20051;-50
2022/05/01 06:45:04;;;;;;;18.23;12.23;;;;;;;9.97;81.51;102342.56;5034306;28;20051;-49
2022/05/01 06:47:31;;;;;;;17.80;12.90;;;;;;;10.00;81.68;102351.09;5061071;28;20123;-50
2022/05/01 06:49:59;;;;;;;16.30;11.88;;;;;;;10.00;81.26;102347.56;5061126;28;20510;-51
2022/05/01 06:52:27;;;;;;;16.70;12.48;;;;;;;10.05;81.51;102358.59;5060752;28;20045;-54
2022/05/01 06:54:56;;;;;;;18.75;12.68;;;;;;;10.09;80.85;102350.81;5053878;28;20037;-48
2022/05/01 06:57:24;;;;;;;18.33;13.00;;;;;;;10.10;80.20;102350.59;5057530;28;20472;-48
2022/05/01 06:59:52;;;;;;;17.80;12.63;;;;;;;10.12;80.30;102348.47;5053119;28;20106;-51
2022/05/01 07:02:19;;;;;;;17.27;12.60;;;;;;;10.14;79.67;102357.25;5055609;28;20040;-49
2022/05/01 07:04:47;;;;;;;18.17;12.23;;;;;;;10.15;79.24;102353.47;5062530;28;20048;-48
2022/05/01 07:07:15;;;;;;;17.55;12.13;;;;;;;10.12;79.38;102353.06;5055261;28;20049;-49
2022/05/01 07:09:43;;;;;;;16.90;11.80;;;;;;;10.17;78.97;102351.34;5059658;28;20045;-49
2022/05/01 07:12:11;;;;;;;15.55;11.48;;;;;;;10.22;78.96;102348.78;5035150;28;20032;-52
2022/05/01 07:14:39;;;;;;;16.67;11.07;;;;;;;10.30;78.75;102346.84;5059887;28;20045;-48
2022/05/01 07:17:07;;;;;;;15.85;11.55;;;;;;;10.38;78.66;102351.97;5016890;28;20388;-48
2022/05/01 07:19:35;;;;;;;18.55;11.77;;;;;;;10.44;78.22;102351.06;5044368;28;20495;-48
2022/05/01 07:22:02;;;;;;;17.88;11.52;;;;;;;10.50;78.16;102358.31;5054594;28;20043;-48
2022/05/01 07:24:30;;;;;;;14.63;10.00;;;;;;;10.47;77.85;102345.13;5056282;28;20056;-47
2022/05/01 07:26:58;;;;;;;16.40;10.57;;;;;;;10.49;78.51;102353.94;5062277;28;20045;-47
2022/05/01 07:29:26;;;;;;;15.18;11.15;;;;;;;10.50;77.10;102355.56;5070798;28;20471;-48
2022/05/01 07:31:53;;;;;;;16.30;11.52;;;;;;;10.52;76.31;102353.47;5072717;28;20047;-52
2022/05/01 07:34:21;;;;;;;18.40;12.43;;;;;;;10.55;76.14;102361.16;5072451;28;20049;-50
2022/05/01 07:36:48;;;;;;;16.98;11.60;;;;;;;10.54;74.84;102358.69;5072794;28;20037;-47
2022/05/01 07:39:16;;;;;;;15.95;10.95;;;;;;;10.54;75.33;102350.50;5051752;28;20056;-49
2022/05/01 07:41:44;;;;;;;13.57;10.65;;;;;;;10.57;74.88;102356.31;5072560;28;20466;-48
2022/05/01 07:44:11;;;;;;;16.48;10.85;;;;;;;10.61;74.67;102352.06;5055223;28;20040;-49
2022/05/01 07:46:43;;;;;;;17.35;11.70;;;;;;;10.66;75.20;102354.94;5072657;28;20048;-51
2022/05/01 07:49:11;;;;;;;14.23;10.68;;;;;;;10.71;75.65;102356.16;5056208;28;20048;-51
2022/05/01 07:51:40;;;;;;;17.05;10.77;;;;;;;10.74;74.86;102361.13;5053235;28;20407;-51
2022/05/01 07:54:07;;;;;;;15.23;10.30;;;;;;;10.70;74.38;102359.91;5034822;28;20045;-50
2022/05/01 07:56:35;;;;;;;17.27;10.23;;;;;;;10.73;74.10;102356.75;5062135;28;20040;-49
2022/05/01 07:59:03;;;;;;;13.73;9.68;;;;;;;10.76;73.21;102351.66;5053188;28;20041;-50
2022/05/01 08:01:31;;;;;;;17.63;10.00;;;;;;;10.76;72.46;102361.75;5071646;28;20403;-52
2022/05/01 08:06:45;;;;;;;14.52;9.80;;;;;;;10.73;72.20;102359.47;5072190;28;20049;-52
2022/05/01 08:09:12;;;;;;;17.77;9.63;;;;;;;10.73;71.29;102357.59;5053705;28;20041;-55
2022/05/01 08:11:40;;;;;;;14.63;9.23;;;;;;;10.81;71.87;102353.69;5052335;28;20048;-49
2022/05/01 08:14:09;;;;;;;15.27;9.23;;;;;;;10.85;71.96;102347.53;5053497;28;20048;-50
2022/05/01 08:16:36;;;;;;;15.75;9.95;;;;;;;10.91;72.04;102355.84;5052431;28;20094;-50
2022/05/01 08:21:50;;;;;;;13.02;8.35;;;;;;;10.85;69.00;102352.19;5056464;28;20444;-51
2022/05/01 08:24:18;;;;;;;13.25;8.45;;;;;;;10.83;69.24;102354.28;5055880;28;20045;-51
2022/05/01 08:26:49;;;;;;;15.85;8.15;;;;;;;10.83;69.21;102349.66;5022820;28;20053;-53
2022/05/01 08:29:17;;;;;;;12.70;9.13;;;;;;;10.87;69.06;102348.16;5036086;28;20041;-49
2022/05/01 08:31:49;;;;;;;13.45;9.23;;;;;;;10.92;68.88;102352.91;5035984;28;20041;-52
2022/05/01 08:34:17;;;;;;;15.80;9.25;;;;;;;10.93;68.75;102354.56;5018127;28;20041;-48
2022/05/01 08:36:45;;;;;;;14.05;8.82;;;;;;;10.93;68.56;102356.47;5035781;28;20431;-51
2022/05/01 08:39:13;;;;;;;14.50;8.95;;;;;;;10.94;68.41;102361.66;5037436;28;20037;-51
2022/05/01 08:41:42;;;;;;;13.25;8.60;;;;;;;10.96;68.61;102358.72;5035904;28;20042;-49
2022/05/01 08:44:13;;;;;;;13.27;8.93;;;;;;;10.97;67.88;102349.47;5035998;28;20407;-50
2022/05/01 08:46:53;;;;;;;15.07;8.57;;;;;;;10.99;67.97;102352.78;5038063;28;20400;-52
2022/05/01 08:49:20;;;;;;;13.77;8.25;;;;;;;10.98;66.75;102349.22;5075829;28;20411;-50
2022/05/01 08:51:49;;;;;;;12.50;7.95;;;;;;;11.02;66.80;102350.44;5039454;28;20049;-53
2022/05/01 08:54:17;;;;;;;13.23;8.15;;;;;;;10.99;67.17;102348.19;5037969;28;20048;-50
2022/05/01 08:56:45;;;;;;;12.80;7.78;;;;;;;11.01;66.74;102348.75;5055963;28;20048;-52
2022/05/01 08:59:15;;;;;;;12.93;6.60;;;;;;;11.02;65.71;102347.72;5039122;28;20124;-52
2022/05/01 09:01:44;;;;;;;11.38;6.88;;;;;;;11.09;65.26;102344.88;5056598;28;20045;-52
2022/05/01 09:04:13;;;;;;;12.00;7.22;;;;;;;11.15;65.27;102345.84;5037236;28;20048;-51
2022/05/01 09:06:42;;;;;;;12.70;7.40;;;;;;;11.14;64.21;102352.38;5058100;28;20051;-52
2022/05/01 09:09:16;;;;;;;11.05;6.60;;;;;;;11.13;63.26;102347.97;5057474;28;20116;-51
2022/05/01 09:14:30;;;;;;;11.00;6.88;;;;;;;11.13;63.79;102347.97;5073612;28;20040;-51
2022/05/01 09:17:15;;;;;;;10.57;5.95;;;;;;;11.10;61.48;102349.25;5073266;28;20040;-54
2022/05/01 09:19:48;;;;;;;11.32;6.10;;;;;;;11.14;61.11;102349.66;5075414;28;20055;-50
2022/05/01 09:22:19;;;;;;;12.15;6.35;;;;;;;11.21;62.54;102344.91;5075024;28;20044;-51
2022/05/01 09:24:53;;;;;;;11.95;6.97;;;;;;;11.27;62.68;102350.22;5057142;28;20049;-53
2022/05/01 09:27:27;;;;;;;11.13;7.15;;;;;;;11.30;61.95;102357.13;5062112;28;20094;-50
2022/05/01 09:30:11;;;;;;;10.13;6.35;;;;;;;11.35;61.50;102346.31;5036828;28;20124;-51
2022/05/01 09:32:40;;;;;;;11.00;6.07;;;;;;;11.32;59.79;102346.81;5036219;28;20045;-50
2022/05/01 09:35:12;;;;;;;10.45;6.03;;;;;;;11.35;59.97;102345.50;5020200;28;20041;-51
2022/05/01 09:37:40;;;;;;;10.45;6.15;;;;;;;11.38;61.67;102355.97;5047415;28;20056;-52
2022/05/01 09:40:09;;;;;;;9.90;5.68;;;;;;;11.35;58.58;102351.78;5074593;28;20083;-54
2022/05/01 09:42:36;;;;;;;11.25;6.28;;;;;;;11.36;59.39;102350.72;5074628;28;20059;-53
2022/05/01 09:45:17;;;;;;;9.50;6.32;;;;;;;11.35;60.25;102346.31;5074892;28;20045;-52
2022/05/01 09:47:45;;;;;;;9.00;5.75;;;;;;;11.37;60.38;102349.66;5058799;28;20132;-49
2022/05/01 09:50:16;;;;;;;9.45;5.75;;;;;;;11.42;58.60;102347.03;5037001;28;20124;-50
2022/05/01 09:53:03;;;;;;;11.38;5.72;;;;;;;11.46;58.03;102352.88;5054264;28;20447;-52
2022/05/01 09:55:31;;;;;;;9.40;5.47;;;;;;;11.55;58.45;102353.38;5054209;28;20136;-50
2022/05/01 09:58:10;;;;;;;9.70;5.70;;;;;;;11.57;56.63;102345.75;5055350;28;20045;-49
2022/05/01 10:00:46;;;;;;;9.93;5.38;;;;;;;11.57;56.17;102345.75;5055273;28;20079;-56
2022/05/01 10:03:31;;;;;;;9.90;5.68;;;;;;;11.57;56.16;102343.88;5054231;28;20037;-55
2022/05/01 10:06:00;;;;;;;9.55;5.22;;;;;;;11.58;55.33;102353.72;5034504;28;20420;-55
2022/05/01 10:08:28;;;;;;;8.75;5.05;;;;;;;11.60;56.36;102343.38;5037492;28;20123;-50
2022/05/01 10:10:58;;;;;;;7.55;4.68;;;;;;;11.59;53.74;102346.34;5054119;28;20488;-50
2022/05/01 10:13:27;;;;;;;9.48;4.90;;;;;;;11.58;53.43;102345.53;5017892;28;20054;-52
2022/05/01 10:16:07;;;;;;;9.10;4.30;;;;;;;11.60;51.98;102342.56;5034252;28;20091;-48
2022/05/01 10:18:36;;;;;;;7.10;4.03;;;;;;;11.65;51.77;102339.94;5029875;28;20116;-49
2022/05/01 10:21:05;;;;;;;10.45;5.30;;;;;;;11.69;54.60;102336.50;5036238;28;20045;-51
2022/05/01 10:23:34;;;;;;;9.07;4.90;;;;;;;11.78;55.17;102345.16;5036169;28;20048;-50
2022/05/01 10:26:18;;;;;;;8.10;4.60;;;;;;;11.79;49.79;102337.81;5017654;28;20057;-52
2022/05/01 10:29:18;;;;;;;8.73;5.05;;;;;;;11.86;50.43;102339.34;5046364;28;20419;-51
2022/05/01 10:32:25;;;;;;;11.88;5.60;;;;;;;11.92;51.60;102335.66;5035956;28;20045;-52
2022/05/01 10:35:24;;;;;;;8.02;4.97;;;;;;;12.00;52.38;102328.16;5053159;28;20053;-53
2022/05/01 10:38:07;;;;;;;9.48;5.13;;;;;;;12.09;52.80;102327.56;5054810;28;20128;-51
2022/05/01 10:40:44;;;;;;;9.52;5.97;;;;;;;12.17;51.49;102320.91;5053573;28;20052;-51
2022/05/01 10:43:36;;;;;;;9.93;5.82;;;;;;;12.22;50.86;102318.28;5056047;28;20040;-52
2022/05/01 10:46:24;;;;;;;9.98;5.40;;;;;;;12.24;51.73;102310.66;5073585;28;20564;-51
2022/05/01 10:48:52;;;;;;;10.82;5.40;;;;;;;12.35;51.94;102320.72;5064558;28;20055;-55
2022/05/01 10:51:31;;;;;;;9.57;5.15;;;;;;;12.33;51.00;102320.13;5053270;28;20041;-51
2022/05/01 10:54:17;;;;;;;9.68;5.45;;;;;;;12.35;51.39;102311.69;5053537;28;20148;-50
2022/05/01 10:56:45;;;;;;;;;;;;;;;12.42;50.36;102308.81;5053477;28;20415;-50
2022/05/01 10:59:38;;;;;;;9.48;5.35;;;;;;;12.51;50.44;102308.19;5043443;28;19920;-54
2022/05/01 11:02:22;;;;;;;10.88;6.03;;;;;;;12.63;50.01;102301.81;5072813;28;20457;-52
2022/05/01 11:04:51;;;;;;;9.07;5.38;;;;;;;12.61;49.59;102299.34;5054537;28;20048;-54
2022/05/01 11:07:19;;;;;;;8.63;5.88;;;;;;;12.61;49.17;102298.50;5072270;28;20079;-51
2022/05/01 11:09:48;;;;;;;10.25;6.07;;;;;;;12.62;49.65;102294.69;5052927;28;20417;-51
2022/05/01 11:12:25;;;;;;;10.38;5.78;;;;;;;12.63;49.63;102289.00;5055573;28;20147;-52
2022/05/01 11:15:08;;;;;;;9.85;5.68;;;;;;;12.65;49.48;102295.06;5056392;28;20040;-52
2022/05/01 11:18:09;;;;;;;8.75;5.03;;;;;;;12.65;49.41;102284.13;5064922;28;20095;-53
2022/05/01 11:20:30;;;;;;;17.38;6.80;;;;;;;12.70;50.27;102284.19;5051267;28;20033;-52
2022/05/01 11:23:19;;;;;;;8.70;5.30;;;;;;;12.72;49.72;102283.94;5052697;28;20047;-52
2022/05/01 11:25:48;;;;;;;9.57;6.55;;;;;;;12.75;50.21;102284.28;5052689;28;20051;-51
2022/05/01 11:28:41;;;;;;;10.98;6.50;;;;;;;12.80;49.26;102275.34;5049810;28;20073;-49
2022/05/01 11:31:36;;;;;;;11.18;6.80;;;;;;;12.71;49.21;102274.91;5031036;28;20048;-52
2022/05/01 11:34:22;;;;;;;11.68;6.05;;;;;;;12.76;49.74;102272.25;5042431;28;20049;-51
2022/05/01 11:37:01;;;;;;;9.65;6.60;;;;;;;12.75;49.93;102269.78;5038337;28;20064;-50
2022/05/01 11:39:48;;;;;;;12.38;6.80;;;;;;;12.73;50.69;102264.56;5043974;28;20040;-51
2022/05/01 11:42:35;;;;;;;10.55;7.05;;;;;;;12.72;51.08;102257.44;5072850;28;20050;-50
2022/05/01 11:45:04;;;;;;;11.13;7.10;;;;;;;12.76;50.86;102255.84;5054992;28;20047;-51
2022/05/01 11:47:33;;;;;;;9.90;6.47;;;;;;;12.76;50.74;102258.59;5053249;28;20040;-48
2022/05/01 11:50:01;;;;;;;13.40;7.50;;;;;;;12.77;50.77;102249.31;5036470;28;20488;-52
2022/05/01 11:52:30;;;;;;;11.43;7.20;;;;;;;12.73;50.30;102245.41;5052704;28;20041;-51
2022/05/01 11:54:59;;;;;;;11.38;6.15;;;;;;;12.75;51.33;102245.16;5053734;28;20045;-50
2022/05/01 12:03:07;;;;;;;11.48;6.53;;;;;;;12.91;52.09;102232.56;5036657;28;20041;-51